createdAt,value
2019-02-23T00:01:09.680Z,103449.56
2019-02-23T00:03:38.431Z,103444.26
2019-02-23T00:06:05.135Z,103452.08
2019-02-23T00:08:31.727Z,103447.66
2019-02-23T00:10:58.350Z,103451.83
2019-02-23T00:13:25.057Z,103451.88
2019-02-23T00:15:51.722Z,103463.63
2019-02-23T00:18:18.571Z,103469.40
2019-02-23T00:20:45.358Z,103473.06
2019-02-23T00:23:12.279Z,103460.65
2019-02-23T00:25:38.973Z,103466.70
2019-02-23T00:28:05.674Z,103466.45
2019-02-23T00:30:32.447Z,103469.94
2019-02-23T00:32:59.040Z,103477.61
2019-02-23T00:35:26.224Z,103481.84
2019-02-23T00:37:52.993Z,103483.06
2019-02-23T00:40:21.936Z,103475.16
2019-02-23T00:42:48.509Z,103479.95
2019-02-23T00:45:15.298Z,103480.02
2019-02-23T00:47:41.978Z,103493.22
2019-02-23T00:50:08.680Z,103495.25
2019-02-23T00:52:35.371Z,103499.89
2019-02-23T00:55:02.368Z,103495.76
2019-02-23T00:57:29.069Z,103497.80
2019-02-23T00:59:55.663Z,103501.55
2019-02-23T01:02:22.273Z,103501.95
2019-02-23T01:04:48.933Z,103504.56
2019-02-23T01:07:15.698Z,103512.85
2019-02-23T01:09:42.452Z,103509.77
2019-02-23T01:12:09.028Z,103511.57
2019-02-23T01:14:35.680Z,103509.05
2019-02-23T01:17:02.575Z,103502.52
2019-02-23T01:19:29.164Z,103508.81
2019-02-23T01:21:55.780Z,103524.52
2019-02-23T01:24:22.553Z,103531.51
2019-02-23T01:26:49.173Z,103535.12
2019-02-23T01:29:15.838Z,103533.84
2019-02-23T01:31:42.398Z,103528.30
2019-02-23T01:34:09.138Z,103529.89
2019-02-23T01:36:35.774Z,103533.31
2019-02-23T01:39:04.385Z,103535.22
2019-02-23T01:41:33.139Z,103532.88
2019-02-23T01:44:00.613Z,103532.53
2019-02-23T01:46:27.418Z,103535.97
2019-02-23T01:48:54.294Z,103545.36
2019-02-23T01:51:21.172Z,103545.36
2019-02-23T01:53:48.097Z,103547.44
2019-02-23T01:56:14.948Z,103547.18
2019-02-23T01:58:41.573Z,103551.82
2019-02-23T02:01:08.954Z,103553.27
2019-02-23T02:03:35.886Z,103549.91
2019-02-23T02:06:02.705Z,103546.57
2019-02-23T02:08:29.593Z,103553.95
2019-02-23T02:10:56.185Z,103541.34
2019-02-23T02:13:24.176Z,103540.88
2019-02-23T02:15:52.940Z,103541.42
2019-02-23T02:18:19.525Z,103540.66
2019-02-23T02:20:46.258Z,103540.39
2019-02-23T02:23:14.069Z,103535.91
2019-02-23T02:25:40.691Z,103531.20
2019-02-23T02:28:07.448Z,103542.16
2019-02-23T02:30:34.237Z,103551.73
2019-02-23T02:33:00.825Z,103540.71
2019-02-23T02:35:27.440Z,103542.36
2019-02-23T02:37:54.443Z,103543.98
2019-02-23T02:40:21.155Z,103532.76
2019-02-23T02:42:47.915Z,103527.30
2019-02-23T02:45:14.938Z,103526.16
2019-02-23T02:47:41.702Z,103529.83
2019-02-23T02:50:09.550Z,103526.23
2019-02-23T02:52:36.145Z,103529.09
2019-02-23T02:55:05.852Z,103523.34
2019-02-23T02:57:32.503Z,103522.83
2019-02-23T02:59:59.097Z,103524.84
2019-02-23T03:02:25.768Z,103524.04
2019-02-23T03:04:52.395Z,103519.86
2019-02-23T03:07:19.253Z,103527.30
2019-02-23T03:09:45.852Z,103534.16
2019-02-23T03:12:12.501Z,103536.47
2019-02-23T03:14:39.079Z,103544.97
2019-02-23T03:17:05.902Z,103546.88
2019-02-23T03:19:35.405Z,103530.81
2019-02-23T03:22:02.153Z,103536.77
2019-02-23T03:24:28.734Z,103539.90
2019-02-23T03:26:55.436Z,103535.31
2019-02-23T03:29:22.056Z,103538.20
2019-02-23T03:31:48.645Z,103542.53
2019-02-23T03:34:15.403Z,103540.22
2019-02-23T03:36:43.541Z,103537.21
2019-02-23T03:39:10.105Z,103539.27
2019-02-23T03:41:36.736Z,103546.02
2019-02-23T03:44:03.508Z,103541.22
2019-02-23T03:46:30.202Z,103541.52
2019-02-23T03:48:56.888Z,103538.97
2019-02-23T03:51:23.501Z,103536.25
2019-02-23T03:53:50.058Z,103531.35
2019-02-23T03:56:17.374Z,103534.20
2019-02-23T03:58:43.978Z,103534.87
2019-02-23T04:01:10.620Z,103538.27
2019-02-23T04:03:37.225Z,103534.77
2019-02-23T04:06:03.764Z,103537.89
2019-02-23T04:08:30.696Z,103535.19
2019-02-23T04:10:57.456Z,103532.09
2019-02-23T04:13:24.242Z,103527.30
2019-02-23T04:15:50.906Z,103529.91
2019-02-23T04:18:17.517Z,103530.48
2019-02-23T04:20:44.213Z,103536.62
2019-02-23T04:23:10.811Z,103531.58
2019-02-23T04:25:37.456Z,103525.39
2019-02-23T04:28:04.119Z,103520.77
2019-02-23T04:30:30.667Z,103519.48
2019-02-23T04:32:57.311Z,103518.56
2019-02-23T04:35:23.870Z,103519.06
2019-02-23T04:37:50.566Z,103528.59
2019-02-23T04:40:17.183Z,103530.64
2019-02-23T04:42:43.764Z,103535.27
2019-02-23T04:45:10.536Z,103533.75
2019-02-23T04:47:37.135Z,103526.23
2019-02-23T04:50:08.119Z,103538.26
2019-02-23T04:52:34.739Z,103553.64
2019-02-23T04:55:01.298Z,103546.64
2019-02-23T04:57:27.946Z,103551.38
2019-02-23T04:59:54.906Z,103554.17
2019-02-23T05:02:21.754Z,103559.66
2019-02-23T05:04:48.433Z,103546.45
2019-02-23T05:07:15.005Z,103547.53
2019-02-23T05:09:41.596Z,103544.11
2019-02-23T05:12:08.286Z,103554.91
2019-02-23T05:14:34.880Z,103546.58
2019-02-23T05:17:01.502Z,103537.82
2019-02-23T05:19:28.075Z,103547.06
2019-02-23T05:21:54.843Z,103551.84
2019-02-23T05:24:21.690Z,103546.66
2019-02-23T05:26:48.316Z,103537.34
2019-02-23T05:29:16.810Z,103537.91
2019-02-23T05:31:43.436Z,103545.20
2019-02-23T05:34:10.067Z,103546.20
2019-02-23T05:36:36.661Z,103551.13
2019-02-23T05:39:05.369Z,103529.56
2019-02-23T05:41:32.013Z,103537.00
2019-02-23T05:43:58.690Z,103549.93
2019-02-23T05:46:25.427Z,103562.73
2019-02-23T05:48:52.030Z,103561.45
2019-02-23T05:51:18.849Z,103552.99
2019-02-23T05:53:45.428Z,103547.03
2019-02-23T05:56:15.967Z,103546.61
2019-02-23T05:58:40.590Z,103547.05
2019-02-23T06:01:07.174Z,103562.86
2019-02-23T06:03:33.847Z,103589.73
2019-02-23T06:06:00.460Z,103586.73
2019-02-23T06:08:27.038Z,103572.77
2019-02-23T06:10:53.895Z,103593.78
2019-02-23T06:13:20.514Z,103606.66
2019-02-23T06:15:47.105Z,103614.77
2019-02-23T06:18:13.772Z,103617.42
2019-02-23T06:20:40.536Z,103634.44
2019-02-23T06:23:07.237Z,103642.08
2019-02-23T06:25:34.201Z,103650.17
2019-02-23T06:28:00.971Z,103649.19
2019-02-23T06:30:27.684Z,103659.37
2019-02-23T06:32:54.465Z,103664.80
2019-02-23T06:35:21.392Z,103652.25
2019-02-23T06:37:48.231Z,103657.92
2019-02-23T06:40:14.842Z,103652.11
2019-02-23T06:42:41.498Z,103638.17
2019-02-23T06:45:11.207Z,103622.56
2019-02-23T06:47:38.032Z,103617.02
2019-02-23T06:50:06.278Z,103631.11
2019-02-23T06:52:32.955Z,103636.60
2019-02-23T06:55:00.397Z,103660.81
2019-02-23T06:57:27.284Z,103669.83
2019-02-23T06:59:54.196Z,103674.50
2019-02-23T07:02:20.941Z,103677.45
2019-02-23T07:04:47.571Z,103658.08
2019-02-23T07:07:14.209Z,103650.42
2019-02-23T07:09:40.813Z,103656.95
2019-02-23T07:12:07.506Z,103676.20
2019-02-23T07:14:34.231Z,103681.05
2019-02-23T07:17:00.827Z,103697.09
2019-02-23T07:19:27.457Z,103697.67
2019-02-23T07:21:54.142Z,103692.52
2019-02-23T07:24:20.938Z,103699.20
2019-02-23T07:26:47.636Z,103699.62
2019-02-23T07:29:14.268Z,103694.22
2019-02-23T07:31:41.100Z,103691.41
2019-02-23T07:34:07.740Z,103700.26
2019-02-23T07:36:34.381Z,103711.27
2019-02-23T07:39:01.149Z,103711.84
2019-02-23T07:41:28.405Z,103707.13
2019-02-23T07:43:55.461Z,103713.94
2019-02-23T07:46:22.198Z,103714.83
2019-02-23T07:48:48.847Z,103711.23
2019-02-23T07:51:15.486Z,103699.88
2019-02-23T07:53:42.172Z,103701.48
2019-02-23T07:56:08.913Z,103722.19
2019-02-23T07:58:38.652Z,103724.42
2019-02-23T08:01:05.572Z,103740.01
2019-02-23T08:03:32.189Z,103737.25
2019-02-23T08:05:59.176Z,103744.98
2019-02-23T08:08:25.833Z,103754.03
2019-02-23T08:10:52.461Z,103738.69
2019-02-23T08:13:19.156Z,103735.84
2019-02-23T08:15:46.477Z,103734.73
2019-02-23T08:18:13.222Z,103728.59
2019-02-23T08:20:43.592Z,103708.25
2019-02-23T08:23:11.741Z,103696.73
2019-02-23T08:25:38.375Z,103683.91
2019-02-23T08:28:05.436Z,103670.17
2019-02-23T08:30:32.419Z,103658.04
2019-02-23T08:32:59.105Z,103651.41
2019-02-23T08:35:25.921Z,103660.12
2019-02-23T08:37:52.750Z,103656.41
2019-02-23T08:40:19.406Z,103672.92
2019-02-23T08:42:46.580Z,103668.89
2019-02-23T08:45:13.606Z,103670.63
2019-02-23T08:47:40.160Z,103674.05
2019-02-23T08:50:12.094Z,103670.19
2019-02-23T08:52:48.531Z,103659.33
2019-02-23T08:55:09.226Z,103651.27
2019-02-23T08:57:35.997Z,103649.06
2019-02-23T09:00:07.699Z,103650.66
2019-02-23T09:02:34.345Z,103655.73
2019-02-23T09:05:00.927Z,103659.69
2019-02-23T09:07:28.085Z,103658.41
2019-02-23T09:09:55.605Z,103661.17
2019-02-23T09:12:22.909Z,103671.22
2019-02-23T09:14:50.169Z,103680.55
2019-02-23T09:17:17.460Z,103669.51
2019-02-23T09:19:44.352Z,103668.97
2019-02-23T09:22:11.676Z,103661.64
2019-02-23T09:24:39.055Z,103670.56
2019-02-23T09:27:05.976Z,103671.81
2019-02-23T09:29:32.622Z,103667.97
2019-02-23T09:31:59.360Z,103666.67
2019-02-23T09:34:25.963Z,103661.66
2019-02-23T09:36:52.669Z,103666.92
2019-02-23T09:39:19.393Z,103669.81
2019-02-23T09:41:45.999Z,103666.42
2019-02-23T09:44:12.661Z,103673.55
2019-02-23T09:46:39.957Z,103681.98
2019-02-23T09:49:06.726Z,103687.00
2019-02-23T09:51:33.444Z,103681.12
2019-02-23T09:54:00.018Z,103679.28
2019-02-23T09:56:26.680Z,103687.36
2019-02-23T09:58:53.287Z,103673.91
2019-02-23T10:01:19.915Z,103654.77
2019-02-23T10:03:46.545Z,103662.12
2019-02-23T10:06:13.118Z,103666.55
2019-02-23T10:08:39.874Z,103649.98
2019-02-23T10:11:06.753Z,103634.05
2019-02-23T10:13:33.432Z,103621.84
2019-02-23T10:16:00.082Z,103635.75
2019-02-23T10:18:26.727Z,103627.77
2019-02-23T10:20:53.594Z,103615.37
2019-02-23T10:23:22.322Z,103601.58
2019-02-23T10:35:13.036Z,103617.07
2019-02-23T10:37:43.736Z,103614.03
2019-02-23T10:40:11.792Z,103617.41
2019-02-23T10:42:38.682Z,103614.75
2019-02-23T10:45:10.093Z,103599.31
2019-02-23T10:47:40.121Z,103594.56
2019-02-23T10:50:09.978Z,103592.02
2019-02-23T10:52:36.681Z,103600.13
2019-02-23T10:55:07.970Z,103605.52
2019-02-23T10:57:36.178Z,103601.11
2019-02-23T11:00:10.266Z,103592.84
2019-02-23T11:02:37.048Z,103580.67
2019-02-23T11:05:06.380Z,103589.47
2019-02-23T11:07:33.227Z,103577.62
2019-02-23T11:09:59.963Z,103567.14
2019-02-23T11:12:26.743Z,103562.69
2019-02-23T11:14:53.654Z,103575.73
2019-02-23T11:17:20.223Z,103589.31
2019-02-23T11:19:46.917Z,103591.63
2019-02-23T11:22:13.703Z,103592.50
2019-02-23T11:24:40.385Z,103584.30
2019-02-23T11:27:07.158Z,103585.73
2019-02-23T11:29:34.017Z,103583.14
2019-02-23T11:33:00.420Z,103578.31
2019-02-23T11:35:27.598Z,103573.42
2019-02-23T11:37:54.311Z,103565.20
2019-02-23T11:40:23.338Z,103564.19
2019-02-23T11:42:49.644Z,103565.13
2019-02-23T11:45:16.475Z,103567.34
2019-02-23T11:47:43.227Z,103557.97
2019-02-23T11:50:12.302Z,103551.34
2019-02-23T11:52:39.583Z,103548.02
2019-02-23T11:55:06.721Z,103547.50
2019-02-23T11:57:33.706Z,103544.94
2019-02-23T12:00:00.336Z,103541.69
2019-02-23T12:02:26.989Z,103540.70
2019-02-23T12:04:53.673Z,103539.00
2019-02-23T12:07:20.285Z,103540.10
2019-02-23T12:09:48.253Z,103533.23
2019-02-23T12:12:14.913Z,103526.19
2019-02-23T12:14:41.535Z,103533.09
2019-02-23T12:17:08.106Z,103530.98
2019-02-23T12:19:34.722Z,103525.23
2019-02-23T12:22:11.794Z,103527.28
2019-02-23T12:24:29.795Z,103533.77
2019-02-23T12:26:56.555Z,103518.65
2019-02-23T12:29:23.147Z,103519.47
2019-02-23T12:31:49.878Z,103523.12
2019-02-23T12:34:16.523Z,103521.60
2019-02-23T12:36:45.117Z,103523.78
2019-02-23T12:39:11.672Z,103521.12
2019-02-23T12:41:40.433Z,103506.77
2019-02-23T12:44:07.192Z,103506.02
2019-02-23T12:46:33.780Z,103505.08
2019-02-23T12:49:00.390Z,103515.07
2019-02-23T12:51:27.043Z,103514.23
2019-02-23T12:53:53.702Z,103514.85
2019-02-23T12:56:20.409Z,103519.56
2019-02-23T12:58:48.761Z,103504.78
2019-02-23T13:01:15.678Z,103494.82
2019-02-23T13:03:42.322Z,103505.56
2019-02-23T13:06:09.266Z,103504.33
2019-02-23T13:08:41.678Z,103513.97
2019-02-23T13:11:11.674Z,103512.03
2019-02-23T13:13:44.014Z,103528.16
2019-02-23T13:16:16.410Z,103538.91
2019-02-23T13:18:44.945Z,103519.98
2019-02-23T13:21:17.341Z,103503.20
2019-02-23T13:23:49.730Z,103504.52
2019-02-23T13:26:22.155Z,103492.91
2019-02-23T16:19:35.782Z,103365.74
2019-02-23T16:22:02.851Z,103358.50
2019-02-23T16:24:29.604Z,103347.45
2019-02-23T16:26:56.198Z,103341.12
2019-02-23T16:29:23.039Z,103332.02
2019-02-23T16:31:49.745Z,103326.02
2019-02-23T16:34:16.430Z,103324.72
2019-02-23T16:36:50.433Z,103325.96
2019-02-23T16:39:18.867Z,103325.34
2019-02-23T16:41:45.718Z,103309.17
2019-02-23T16:44:12.410Z,103318.31
2019-02-23T16:46:39.471Z,103310.95
2019-02-23T16:49:06.491Z,103315.52
2019-02-23T16:51:33.161Z,103305.77
2019-02-23T16:54:00.291Z,103304.05
2019-02-23T16:56:27.311Z,103312.31
2019-02-23T16:58:54.604Z,103308.71
2019-02-23T17:01:21.612Z,103315.84
2019-02-23T17:03:48.211Z,103314.91
2019-02-23T17:06:14.887Z,103323.02
2019-02-23T17:08:41.765Z,103324.52
2019-02-23T17:11:08.322Z,103313.41
2019-02-23T17:13:35.215Z,103293.22
2019-02-23T17:16:07.504Z,103279.77
2019-02-23T17:18:36.463Z,103283.17
2019-02-23T17:21:03.301Z,103286.73
2019-02-23T17:23:30.179Z,103271.50
2019-02-23T17:26:04.151Z,103264.83
2019-02-23T17:28:25.811Z,103266.73
2019-02-23T17:30:52.511Z,103261.42
2019-02-23T17:33:19.226Z,103266.60
2019-02-23T17:35:49.408Z,103277.91
2019-02-23T17:38:16.647Z,103272.39
2019-02-23T17:40:44.133Z,103271.34
2019-02-23T17:43:10.709Z,103264.88
2019-02-23T17:45:37.407Z,103266.59
2019-02-23T17:48:04.400Z,103251.44
2019-02-23T17:50:31.134Z,103249.87
2019-02-23T17:52:57.771Z,103242.66
2019-02-23T17:55:24.450Z,103243.69
2019-02-23T17:57:51.035Z,103247.64
2019-02-23T18:01:14.034Z,103257.39
2019-02-23T18:03:40.623Z,103261.33
2019-02-23T18:06:07.387Z,103270.65
2019-02-23T18:08:33.983Z,103266.16
2019-02-23T18:11:00.648Z,103269.72
2019-02-23T18:13:27.287Z,103260.59
2019-02-23T18:15:53.907Z,103257.84
2019-02-23T18:18:20.583Z,103256.81
2019-02-23T18:20:48.318Z,103262.55
2019-02-23T18:23:16.717Z,103261.80
2019-02-23T18:25:43.634Z,103275.28
2019-02-23T18:28:10.557Z,103280.25
2019-02-23T18:30:37.350Z,103274.91
2019-02-23T18:33:04.154Z,103284.73
2019-02-23T18:35:30.906Z,103257.75
2019-02-23T18:37:57.656Z,103262.28
2019-02-23T18:40:24.443Z,103265.70
2019-02-23T18:42:51.249Z,103260.82
2019-02-23T18:45:17.952Z,103257.84
2019-02-23T18:47:44.706Z,103265.55
2019-02-23T18:50:11.741Z,103266.47
2019-02-23T18:52:40.479Z,103260.41
2019-02-23T18:55:07.484Z,103260.44
2019-02-23T18:57:34.739Z,103266.27
2019-02-23T19:00:02.624Z,103266.61
2019-02-23T19:02:29.477Z,103269.61
2019-02-23T19:04:56.094Z,103261.36
2019-02-23T19:07:22.654Z,103256.17
2019-02-23T19:09:53.246Z,103257.69
2019-02-23T19:12:20.982Z,103249.54
2019-02-23T19:14:52.818Z,103245.12
2019-02-23T19:17:19.770Z,103259.16
2019-02-23T19:19:46.594Z,103252.58
2019-02-23T19:22:13.319Z,103239.02
2019-02-23T19:24:41.454Z,103235.67
2019-02-23T19:27:11.067Z,103239.42
2019-02-23T19:29:37.889Z,103237.13
2019-02-23T19:32:04.548Z,103226.55
2019-02-23T19:34:32.181Z,103235.06
2019-02-23T19:36:58.835Z,103228.44
2019-02-23T19:39:25.571Z,103226.34
2019-02-23T19:41:52.336Z,103226.41
2019-02-23T19:44:18.941Z,103216.86
2019-02-23T19:46:49.383Z,103223.34
2019-02-23T19:49:16.037Z,103216.00
2019-02-23T19:51:42.705Z,103210.31
2019-02-23T19:54:09.442Z,103205.33
2019-02-23T19:56:36.086Z,103212.35
2019-02-23T19:59:02.894Z,103210.45
2019-02-23T20:01:29.823Z,103213.20
2019-02-23T20:03:56.508Z,103211.74
2019-02-23T20:06:26.701Z,103199.41
2019-02-23T20:08:53.274Z,103210.04
2019-02-23T20:11:19.904Z,103211.47
2019-02-23T20:13:48.419Z,103214.81
2019-02-23T20:16:17.457Z,103216.23
2019-02-23T20:18:45.256Z,103221.91
2019-02-23T20:21:20.461Z,103211.81
2019-02-23T20:23:55.439Z,103214.02
2019-02-23T20:26:31.138Z,103207.86
2019-02-23T20:29:07.217Z,103206.37
2019-02-23T20:31:41.258Z,103197.23
2019-02-23T20:34:17.441Z,103190.76
2019-02-23T20:36:53.978Z,103195.20
2019-02-23T20:39:34.057Z,103190.08
2019-02-23T20:42:10.018Z,103185.90
2019-02-23T20:44:38.103Z,103180.39
2019-02-23T20:47:04.910Z,103180.88
2019-02-23T20:49:32.001Z,103183.79
2019-02-23T20:51:58.657Z,103176.57
2019-02-23T20:54:26.085Z,103178.97
2019-02-23T20:56:52.728Z,103176.08
2019-02-23T20:59:19.633Z,103177.73
2019-02-23T21:01:46.721Z,103182.56
2019-02-23T21:04:13.826Z,103176.83
2019-02-23T21:06:40.891Z,103170.09
2019-02-23T21:09:08.878Z,103168.38
2019-02-23T21:11:37.533Z,103160.27
2019-02-23T21:14:04.216Z,103165.95
2019-02-23T21:16:31.319Z,103157.13
2019-02-23T21:18:58.073Z,103153.87
2019-02-23T21:21:24.953Z,103155.22
2019-02-23T21:23:51.987Z,103164.58
2019-02-23T21:26:18.600Z,103161.58
2019-02-23T21:28:45.337Z,103161.02
2019-02-23T21:31:12.174Z,103150.85
2019-02-23T21:33:40.213Z,103146.45
2019-02-23T21:36:06.932Z,103150.23
2019-02-23T21:38:33.604Z,103152.02
2019-02-23T21:41:01.038Z,103143.14
2019-02-23T21:43:27.703Z,103134.23
2019-02-23T21:45:54.949Z,103129.11
2019-02-23T21:48:21.516Z,103126.34
2019-02-23T21:50:48.503Z,103118.94
2019-02-23T21:53:15.197Z,103124.20
2019-02-23T21:55:41.785Z,103114.45
2019-02-23T21:58:08.828Z,103116.55
2019-02-23T22:00:35.669Z,103122.78
2019-02-23T22:03:02.656Z,103122.34
2019-02-23T22:05:29.694Z,103110.08
2019-02-23T22:07:56.416Z,103107.95
2019-02-23T22:10:23.566Z,103102.52
2019-02-23T22:12:50.358Z,103104.08
2019-02-23T22:15:16.954Z,103111.72
2019-02-23T22:17:44.266Z,103098.56
2019-02-23T22:20:12.174Z,103110.44
2019-02-23T22:22:38.751Z,103113.56
2019-02-23T22:25:05.656Z,103102.03
2019-02-23T22:27:33.584Z,103102.16
2019-02-23T22:30:00.553Z,103099.38
2019-02-23T22:32:27.352Z,103093.77
2019-02-23T22:35:31.575Z,103088.37
2019-02-23T22:37:58.300Z,103086.84
2019-02-23T22:40:25.447Z,103092.97
2019-02-23T22:42:52.113Z,103085.81
2019-02-23T22:45:18.676Z,103083.48
2019-02-23T22:47:45.284Z,103090.80
2019-02-23T22:50:12.075Z,103084.77
2019-02-23T22:52:38.729Z,103081.31
2019-02-23T22:55:05.769Z,103075.76
2019-02-23T22:57:40.322Z,103084.52
2019-02-23T23:00:01.257Z,103075.55
2019-02-23T23:02:29.021Z,103083.13
2019-02-23T23:04:55.703Z,103077.62
2019-02-23T23:07:22.446Z,103076.38
2019-02-23T23:09:49.081Z,103079.76
2019-02-23T23:12:15.737Z,103063.83
2019-02-23T23:15:38.780Z,103076.52
2019-02-23T23:18:07.216Z,103074.80
2019-02-23T23:20:33.929Z,103063.80
2019-02-23T23:23:00.506Z,103063.89
2019-02-23T23:25:27.161Z,103067.66
2019-02-23T23:27:54.012Z,103069.22
2019-02-23T23:30:22.687Z,103063.47
2019-02-23T23:32:49.410Z,103059.02
2019-02-23T23:35:16.102Z,103050.72
2019-02-23T23:37:42.785Z,103041.77
2019-02-23T23:40:09.403Z,103041.98
2019-02-23T23:42:36.044Z,103043.91
2019-02-23T23:45:04.946Z,103052.27
2019-02-23T23:47:31.515Z,103056.84
2019-02-23T23:49:58.063Z,103052.59
2019-02-23T23:52:24.804Z,103042.53
2019-02-23T23:54:51.402Z,103040.87
2019-02-23T23:57:18.012Z,103035.84
2019-02-23T23:59:44.695Z,103031.19
